Terminal Aerodrome Forecast
Issued by NWS

Home | Current Version | Previous Version | Text Only | Print | Product List | Glossary On
Versions: 1 2 3 4 5 6 7 8 9 10 11 12 13 14 15
000
FTUS43 KBIS 271720
TAFDIK
TAF
KDIK 271720Z 2718/2818 14017KT P6SM FEW070 SCT150
     FM280300 14009KT P6SM SCT090 BKN200
     FM281100 16010KT P6SM FEW080 SCT090=

USA.gov is the U.S. government's official web portal to all federal, state and local government web resources and services.